createdAt,value
2019-05-23T00:00:01.122Z,99.90
2019-05-23T00:02:58.432Z,99.90
2019-05-23T00:06:06.962Z,99.90
2019-05-23T00:08:56.043Z,99.90
2019-05-23T00:11:41.478Z,99.90
2019-05-23T00:14:38.013Z,99.90
2019-05-23T00:17:13.944Z,99.90
2019-05-23T00:19:46.089Z,99.90
2019-05-23T00:22:17.000Z,99.90
2019-05-23T00:24:49.170Z,99.90
2019-05-23T00:27:22.437Z,99.90
2019-05-23T00:29:55.031Z,99.90
2019-05-23T00:32:32.215Z,99.90
2019-05-23T00:35:04.182Z,99.90
2019-05-23T00:37:37.223Z,99.90
2019-05-23T00:40:10.776Z,99.90
2019-05-23T00:42:43.493Z,99.90
2019-05-23T00:45:19.643Z,99.90
2019-05-23T00:47:51.817Z,99.90
2019-05-23T00:50:23.475Z,99.90
2019-05-23T00:52:54.927Z,99.90
2019-05-23T00:55:26.280Z,99.90
2019-05-23T00:57:58.700Z,99.90
2019-05-23T01:00:31.422Z,99.90
2019-05-23T01:03:02.805Z,99.90
2019-05-23T01:05:34.401Z,99.90
2019-05-23T01:08:06.754Z,99.90
2019-05-23T01:10:38.409Z,99.90
2019-05-23T01:13:10.562Z,99.90
2019-05-23T01:15:42.027Z,99.90
2019-05-23T01:18:31.742Z,99.90
2019-05-23T01:21:21.600Z,99.90
2019-05-23T01:23:58.532Z,99.90
2019-05-23T01:26:30.269Z,99.90
2019-05-23T01:29:01.972Z,99.90
2019-05-23T01:31:36.978Z,99.90
2019-05-23T01:34:09.547Z,99.90
2019-05-23T01:36:40.410Z,99.90
2019-05-23T01:39:12.406Z,99.90
2019-05-23T01:41:43.827Z,99.90
2019-05-23T01:44:16.269Z,99.90
2019-05-23T01:46:48.736Z,99.90
2019-05-23T01:49:20.152Z,99.90
2019-05-23T01:51:50.967Z,99.90
2019-05-23T01:54:23.005Z,99.90
2019-05-23T01:56:53.627Z,99.90
2019-05-23T01:59:24.320Z,99.90
2019-05-23T02:01:55.523Z,99.90
2019-05-23T02:04:26.648Z,99.90
2019-05-23T02:06:57.915Z,99.90
2019-05-23T02:09:29.520Z,99.90
2019-05-23T02:12:03.397Z,99.90
2019-05-23T02:14:33.957Z,99.90
2019-05-23T02:17:06.241Z,99.90
2019-05-23T02:19:38.034Z,99.90
2019-05-23T02:22:09.466Z,99.90
2019-05-23T02:24:41.462Z,99.90
2019-05-23T02:27:15.032Z,99.90
2019-05-23T02:29:45.980Z,99.90
2019-05-23T02:32:17.683Z,99.90
2019-05-23T02:34:51.143Z,99.90
2019-05-23T02:37:38.647Z,99.90
2019-05-23T02:40:26.643Z,99.90
2019-05-23T02:43:00.690Z,99.90
2019-05-23T02:45:37.538Z,99.90
2019-05-23T02:48:20.046Z,99.90
2019-05-23T02:50:56.377Z,99.90
2019-05-23T02:53:30.717Z,99.90
2019-05-23T02:56:05.619Z,99.90
2019-05-23T02:58:41.138Z,99.90
2019-05-23T03:01:41.672Z,99.90
2019-05-23T03:04:18.067Z,99.90
2019-05-23T03:06:51.163Z,99.90
2019-05-23T03:09:24.474Z,99.90
2019-05-23T03:11:59.867Z,99.90
2019-05-23T03:14:31.119Z,99.90
2019-05-23T03:17:04.622Z,99.90
2019-05-23T03:19:48.588Z,99.90
2019-05-23T03:22:51.302Z,99.90
2019-05-23T03:26:02.037Z,99.90
2019-05-23T03:28:39.226Z,99.90
2019-05-23T03:31:28.442Z,99.90
2019-05-23T03:33:47.241Z,99.90
2019-05-23T03:36:18.169Z,99.90
2019-05-23T03:38:49.604Z,99.90
2019-05-23T03:41:21.871Z,99.90
2019-05-23T03:43:53.972Z,99.90
2019-05-23T03:46:27.190Z,99.90
2019-05-23T03:48:59.343Z,99.90
2019-05-23T03:51:30.291Z,99.90
2019-05-23T03:54:02.736Z,99.90
2019-05-23T03:56:35.223Z,99.90
2019-05-23T03:59:06.477Z,99.90
2019-05-23T04:01:47.935Z,99.90
2019-05-23T04:04:13.979Z,99.90
2019-05-23T04:06:45.247Z,99.90
2019-05-23T04:09:16.403Z,99.90
2019-05-23T04:11:46.791Z,99.90
2019-05-23T04:14:19.760Z,99.90
2019-05-23T04:16:50.923Z,99.90
2019-05-23T04:19:21.649Z,99.90
2019-05-23T04:21:54.158Z,99.90
2019-05-23T04:24:27.321Z,99.90
2019-05-23T04:26:57.934Z,99.90
2019-05-23T04:29:29.019Z,99.90
2019-05-23T04:32:07.889Z,99.90
2019-05-23T04:34:32.936Z,99.90
2019-05-23T04:37:03.613Z,99.90
2019-05-23T04:39:34.733Z,99.90
2019-05-23T04:42:06.909Z,99.90
2019-05-23T04:44:37.774Z,99.90
2019-05-23T04:47:09.936Z,99.90
2019-05-23T04:49:40.940Z,99.90
2019-05-23T04:52:12.204Z,99.90
2019-05-23T04:54:44.052Z,99.90
2019-05-23T04:57:16.478Z,99.90
2019-05-23T04:59:48.140Z,99.90
2019-05-23T05:02:26.051Z,99.90
2019-05-23T05:04:54.911Z,99.90
2019-05-23T05:07:27.614Z,99.90
2019-05-23T05:10:00.260Z,99.90
2019-05-23T05:12:31.536Z,99.90
2019-05-23T05:15:02.152Z,99.90
2019-05-23T05:17:33.719Z,99.90
2019-05-23T05:20:05.292Z,99.90
2019-05-23T05:22:36.974Z,99.90
2019-05-23T05:25:10.235Z,99.90
2019-05-23T05:27:42.473Z,99.90
2019-05-23T05:30:13.597Z,99.90
2019-05-23T05:32:45.802Z,99.90
2019-05-23T05:35:17.198Z,99.90
2019-05-23T05:37:48.369Z,99.90
2019-05-23T05:40:20.977Z,99.90
2019-05-23T05:42:51.872Z,99.90
2019-05-23T05:45:23.564Z,99.90
2019-05-23T05:47:55.525Z,99.90
2019-05-23T05:50:26.187Z,99.90
2019-05-23T05:52:57.237Z,99.90
2019-05-23T05:55:28.129Z,99.90
2019-05-23T05:57:59.309Z,99.90
2019-05-23T06:00:40.214Z,99.90
2019-05-23T06:03:11.283Z,99.90
2019-05-23T06:06:01.022Z,99.90
2019-05-23T06:08:33.567Z,99.90
2019-05-23T06:11:04.692Z,99.90
2019-05-23T06:13:35.339Z,99.90
2019-05-23T06:16:07.080Z,99.90
2019-05-23T06:18:38.060Z,99.90
2019-05-23T06:21:11.210Z,99.90
2019-05-23T06:23:43.050Z,99.90
2019-05-23T06:26:14.005Z,99.90
2019-05-23T06:28:45.643Z,99.90
2019-05-23T06:31:17.642Z,99.90
2019-05-23T06:33:48.818Z,99.90
2019-05-23T06:36:19.730Z,99.90
2019-05-23T06:38:51.196Z,99.90
2019-05-23T06:41:22.879Z,99.90
2019-05-23T06:43:54.402Z,99.90
2019-05-23T06:46:25.609Z,99.90
2019-05-23T06:48:56.784Z,99.90
2019-05-23T06:51:27.344Z,99.90
2019-05-23T06:53:58.397Z,99.90
2019-05-23T06:56:29.377Z,99.90
2019-05-23T06:59:00.111Z,99.90
2019-05-23T07:01:32.028Z,99.90
2019-05-23T07:04:03.184Z,99.90
2019-05-23T07:06:34.316Z,99.90
2019-05-23T07:09:16.082Z,99.90
2019-05-23T07:11:47.048Z,99.90
2019-05-23T07:14:17.825Z,99.90
2019-05-23T07:16:50.376Z,99.90
2019-05-23T07:19:22.125Z,99.90
2019-05-23T07:21:53.222Z,99.90
2019-05-23T07:24:24.883Z,99.90
2019-05-23T07:26:55.448Z,99.90
2019-05-23T07:29:26.957Z,99.90
2019-05-23T07:31:58.369Z,99.90
2019-05-23T07:34:30.113Z,99.90
2019-05-23T07:37:01.644Z,99.90
2019-05-23T07:39:32.384Z,99.90
2019-05-23T07:42:04.228Z,99.90
2019-05-23T07:44:47.825Z,99.90
2019-05-23T07:47:09.687Z,99.90
2019-05-23T07:49:40.593Z,99.90
2019-05-23T07:52:11.232Z,99.90
2019-05-23T07:54:48.086Z,99.90
2019-05-23T07:57:19.411Z,99.90
2019-05-23T07:59:50.482Z,99.90
2019-05-23T08:02:28.146Z,99.90
2019-05-23T08:04:58.850Z,99.90
2019-05-23T08:07:32.743Z,99.90
2019-05-23T08:10:03.226Z,99.90
2019-05-23T08:12:34.158Z,96.20
2019-05-23T08:15:06.978Z,99.40
2019-05-23T08:17:38.403Z,97.80
2019-05-23T08:20:11.691Z,96.30
2019-05-23T08:22:42.817Z,93.80
2019-05-23T08:25:13.777Z,93.90
2019-05-23T08:27:46.242Z,91.20
2019-05-23T08:30:19.766Z,90.10
2019-05-23T08:32:51.242Z,84.50
2019-05-23T08:35:23.143Z,82.90
2019-05-23T08:37:55.205Z,82.10
2019-05-23T08:40:27.023Z,77.20
2019-05-23T08:42:58.174Z,74.30
2019-05-23T08:45:29.292Z,77.30
2019-05-23T08:48:00.472Z,76.30
2019-05-23T08:50:31.155Z,75.80
2019-05-23T08:53:01.898Z,76.40
2019-05-23T08:55:33.474Z,67.60
2019-05-23T08:58:04.876Z,66.00
2019-05-23T09:00:37.793Z,68.30
2019-05-23T09:03:09.003Z,66.10
2019-05-23T09:05:40.652Z,68.30
2019-05-23T09:08:16.182Z,65.70
2019-05-23T09:10:44.605Z,66.20
2019-05-23T09:13:15.827Z,66.80
2019-05-23T09:15:53.215Z,64.10
2019-05-23T09:18:21.335Z,64.70
2019-05-23T09:20:52.364Z,66.10
2019-05-23T09:23:23.380Z,65.00
2019-05-23T09:25:54.694Z,64.60
2019-05-23T09:28:25.729Z,66.60
2019-05-23T09:30:57.213Z,63.00
2019-05-23T09:33:28.094Z,63.60
2019-05-23T09:35:59.119Z,63.60
2019-05-23T09:38:30.462Z,64.60
2019-05-23T09:41:01.335Z,65.50
2019-05-23T09:43:32.748Z,67.70
2019-05-23T09:46:04.239Z,67.60
2019-05-23T09:48:36.330Z,67.30
2019-05-23T09:51:08.263Z,68.80
2019-05-23T09:53:39.200Z,66.20
2019-05-23T09:56:09.894Z,65.70
2019-05-23T09:58:41.012Z,66.60
2019-05-23T10:01:13.571Z,67.70
2019-05-23T10:03:44.633Z,68.40
2019-05-23T10:06:15.385Z,67.20
2019-05-23T10:08:46.534Z,66.50
2019-05-23T10:11:17.513Z,68.00
2019-05-23T10:13:48.133Z,66.60
2019-05-23T10:16:19.087Z,66.60
2019-05-23T10:18:51.044Z,67.00
2019-05-23T10:21:21.594Z,66.60
2019-05-23T10:23:52.687Z,67.90
2019-05-23T10:26:23.959Z,66.40
2019-05-23T10:28:54.837Z,65.70
2019-05-23T10:31:25.890Z,62.20
2019-05-23T10:33:57.054Z,63.70
2019-05-23T10:36:27.731Z,64.10
2019-05-23T10:38:58.779Z,63.30
2019-05-23T10:41:29.938Z,59.80
2019-05-23T10:44:01.298Z,58.70
2019-05-23T10:46:32.933Z,57.60
2019-05-23T10:49:04.125Z,57.90
2019-05-23T10:51:35.913Z,57.60
2019-05-23T10:54:07.351Z,58.50
2019-05-23T10:56:38.703Z,59.20
2019-05-23T10:59:09.985Z,60.50
2019-05-23T11:01:40.845Z,59.90
2019-05-23T11:04:12.239Z,59.70
2019-05-23T11:06:43.165Z,58.10
2019-05-23T11:09:14.674Z,57.80
2019-05-23T11:11:45.670Z,57.50
2019-05-23T11:14:17.018Z,56.80
2019-05-23T11:16:48.098Z,56.30
2019-05-23T11:19:19.194Z,56.20
2019-05-23T11:21:50.428Z,58.10
2019-05-23T11:24:22.301Z,56.00
2019-05-23T11:26:53.501Z,56.20
2019-05-23T11:29:27.274Z,56.30
2019-05-23T11:31:56.726Z,56.00
2019-05-23T11:34:29.413Z,55.30
2019-05-23T11:37:00.364Z,55.60
2019-05-23T11:39:31.693Z,55.20
2019-05-23T11:42:02.868Z,55.20
2019-05-23T11:44:36.024Z,55.50
2019-05-23T11:47:09.096Z,55.60
2019-05-23T11:49:42.322Z,53.80
2019-05-23T11:52:14.350Z,54.00
2019-05-23T11:54:45.817Z,54.40
2019-05-23T11:57:16.806Z,54.30
2019-05-23T11:59:48.021Z,52.80
2019-05-23T12:02:30.932Z,52.80
2019-05-23T12:05:02.970Z,53.70
2019-05-23T12:07:35.420Z,54.70
2019-05-23T12:10:07.344Z,54.40
2019-05-23T12:12:38.612Z,51.90
2019-05-23T12:15:15.201Z,52.80
2019-05-23T12:17:46.140Z,52.10
2019-05-23T12:20:17.423Z,53.40
2019-05-23T12:22:48.889Z,51.80
2019-05-23T12:25:23.021Z,51.30
2019-05-23T12:27:52.927Z,50.90
2019-05-23T12:30:24.404Z,50.80
2019-05-23T12:32:55.455Z,50.10
2019-05-23T12:35:26.851Z,51.40
2019-05-23T12:38:02.259Z,51.20
2019-05-23T12:40:31.079Z,50.90
2019-05-23T12:43:02.125Z,49.60
2019-05-23T12:45:33.214Z,50.00
2019-05-23T12:48:10.033Z,50.60
2019-05-23T12:50:43.775Z,49.20
2019-05-23T12:53:16.277Z,49.00
2019-05-23T12:55:47.022Z,48.20
2019-05-23T12:58:18.739Z,49.10
2019-05-23T13:00:54.809Z,49.80
2019-05-23T13:03:25.885Z,48.90
2019-05-23T13:05:56.906Z,48.70
2019-05-23T13:08:27.830Z,48.70
2019-05-23T13:10:58.851Z,49.30
2019-05-23T13:13:30.028Z,47.40
2019-05-23T13:16:01.155Z,47.40
2019-05-23T13:18:33.326Z,47.00
2019-05-23T13:21:04.515Z,46.80
2019-05-23T13:23:36.423Z,47.40
2019-05-23T13:26:07.417Z,47.00
2019-05-23T13:28:38.943Z,46.00
2019-05-23T13:31:10.047Z,46.40
2019-05-23T13:33:42.470Z,46.80
2019-05-23T13:36:13.698Z,47.50
2019-05-23T13:38:45.254Z,47.90
2019-05-23T13:41:16.374Z,47.40
2019-05-23T13:43:47.587Z,45.70
2019-05-23T13:46:19.815Z,47.00
2019-05-23T13:48:50.910Z,46.30
2019-05-23T13:51:22.294Z,47.40
2019-05-23T13:53:53.235Z,46.20
2019-05-23T13:56:24.159Z,46.30
2019-05-23T13:58:55.379Z,45.90
2019-05-23T14:01:26.186Z,45.70
2019-05-23T14:03:58.559Z,46.80
2019-05-23T14:06:33.299Z,45.40
2019-05-23T14:09:05.740Z,44.30
2019-05-23T14:11:37.213Z,44.80
2019-05-23T14:14:11.491Z,44.90
2019-05-23T14:16:56.039Z,45.10
2019-05-23T14:19:29.591Z,44.90
2019-05-23T14:22:01.999Z,45.70
2019-05-23T14:24:37.392Z,45.00
2019-05-23T14:27:22.594Z,45.00
2019-05-23T14:29:53.808Z,44.60
2019-05-23T14:32:42.750Z,43.50
2019-05-23T14:35:17.945Z,43.50
2019-05-23T14:37:51.459Z,44.00
2019-05-23T14:40:22.262Z,43.40
2019-05-23T14:43:13.446Z,44.40
2019-05-23T14:45:53.561Z,43.90
2019-05-23T14:48:33.785Z,43.40
2019-05-23T14:51:22.477Z,43.50
2019-05-23T14:53:58.171Z,43.80
2019-05-23T14:56:30.723Z,45.30
2019-05-23T14:59:01.930Z,45.70
2019-05-23T15:01:35.202Z,45.50
2019-05-23T15:04:07.422Z,45.60
2019-05-23T15:06:38.248Z,45.30
2019-05-23T15:09:10.055Z,44.90
2019-05-23T15:11:41.835Z,44.00
2019-05-23T15:14:12.669Z,44.10
2019-05-23T15:16:44.520Z,44.20
2019-05-23T15:19:34.817Z,43.80
2019-05-23T15:21:49.011Z,43.80
2019-05-23T15:24:20.698Z,44.00
2019-05-23T15:26:52.104Z,44.20
2019-05-23T15:29:23.084Z,43.40
2019-05-23T15:32:02.523Z,44.00
2019-05-23T15:34:26.892Z,43.70
2019-05-23T15:36:58.291Z,43.50
2019-05-23T15:39:29.918Z,43.80
2019-05-23T15:42:03.855Z,43.70
2019-05-23T15:44:34.950Z,44.20
2019-05-23T15:47:07.355Z,42.90
2019-05-23T15:49:40.374Z,43.20
2019-05-23T15:52:30.040Z,43.10
2019-05-23T15:55:09.986Z,43.40
2019-05-23T15:57:51.163Z,42.40
2019-05-23T16:00:41.624Z,41.70
2019-05-23T16:03:50.184Z,43.00
2019-05-23T16:06:25.876Z,40.90
2019-05-23T16:08:56.881Z,41.00
2019-05-23T16:11:28.999Z,41.20
2019-05-23T16:14:02.328Z,42.00
2019-05-23T16:16:35.105Z,41.90
2019-05-23T16:19:06.666Z,42.10
2019-05-23T16:21:41.828Z,42.40
2019-05-23T16:24:14.549Z,41.50
2019-05-23T16:26:48.921Z,40.40
2019-05-23T16:29:27.256Z,41.30
2019-05-23T16:31:59.696Z,41.40
2019-05-23T16:34:31.274Z,41.80
2019-05-23T16:37:02.626Z,41.60
2019-05-23T16:39:46.643Z,40.60
2019-05-23T16:42:08.460Z,40.30
2019-05-23T16:44:40.355Z,39.80
2019-05-23T16:47:13.469Z,40.90
2019-05-23T16:49:45.200Z,40.20
2019-05-23T16:52:16.398Z,41.10
2019-05-23T16:54:49.246Z,42.00
2019-05-23T16:57:33.753Z,41.00
2019-05-23T17:00:24.546Z,41.10
2019-05-23T17:03:08.379Z,40.50
2019-05-23T17:05:53.301Z,39.40
2019-05-23T17:08:35.627Z,39.00
2019-05-23T17:11:41.060Z,39.00
2019-05-23T17:14:30.863Z,39.60
2019-05-23T17:17:43.164Z,39.60
2019-05-23T17:20:18.170Z,39.60
2019-05-23T17:22:57.746Z,41.70
2019-05-23T17:25:46.493Z,41.00
2019-05-23T17:28:26.397Z,41.00
2019-05-23T17:31:03.542Z,40.20
2019-05-23T17:33:38.560Z,40.00
2019-05-23T17:36:12.650Z,41.60
2019-05-23T17:38:45.235Z,42.50
2019-05-23T17:41:16.831Z,43.30
2019-05-23T17:43:48.116Z,43.20
2019-05-23T17:46:19.106Z,43.10
2019-05-23T17:48:50.483Z,42.20
2019-05-23T17:51:23.661Z,42.50
2019-05-23T17:53:54.791Z,43.00
2019-05-23T17:56:25.710Z,44.00
2019-05-23T17:58:58.081Z,45.30
2019-05-23T18:01:31.049Z,46.00
2019-05-23T18:04:03.197Z,46.20
2019-05-23T18:06:35.283Z,47.90
2019-05-23T18:09:08.580Z,49.00
2019-05-23T18:11:39.652Z,49.40
2019-05-23T18:14:11.714Z,49.90
2019-05-23T18:16:43.016Z,50.70
2019-05-23T18:19:14.265Z,51.20
2019-05-23T18:21:45.423Z,51.90
2019-05-23T18:24:16.737Z,52.70
2019-05-23T18:26:48.109Z,52.30
2019-05-23T18:29:19.283Z,53.70
2019-05-23T18:31:52.136Z,53.90
2019-05-23T18:34:23.616Z,54.10
2019-05-23T18:36:55.011Z,55.30
2019-05-23T18:39:27.359Z,55.50
2019-05-23T18:41:58.387Z,56.80
2019-05-23T18:44:29.847Z,58.50
2019-05-23T18:47:02.805Z,58.80
2019-05-23T18:49:35.300Z,58.90
2019-05-23T18:52:07.202Z,58.50
2019-05-23T18:54:38.298Z,60.90
2019-05-23T18:57:10.546Z,60.50
2019-05-23T18:59:43.359Z,62.40
2019-05-23T19:02:14.752Z,63.60
2019-05-23T19:04:45.742Z,64.80
2019-05-23T19:07:17.342Z,65.10
2019-05-23T19:09:48.504Z,67.10
2019-05-23T19:12:30.718Z,69.10
2019-05-23T19:15:06.036Z,70.90
2019-05-23T19:17:43.857Z,73.50
2019-05-23T19:20:19.923Z,75.00
2019-05-23T19:22:56.312Z,79.30
2019-05-23T19:25:36.160Z,76.30
2019-05-23T19:28:14.428Z,79.20
2019-05-23T19:30:53.187Z,83.30
2019-05-23T19:33:29.691Z,81.30
2019-05-23T19:36:10.769Z,82.70
2019-05-23T19:38:53.150Z,86.70
2019-05-23T19:41:37.652Z,85.30
2019-05-23T19:44:15.449Z,83.90
2019-05-23T19:46:54.047Z,88.20
2019-05-23T19:49:33.846Z,89.20
2019-05-23T19:52:12.922Z,90.50
2019-05-23T19:54:51.465Z,91.50
2019-05-23T19:57:32.377Z,90.80
2019-05-23T20:00:13.679Z,90.60
2019-05-23T20:02:55.558Z,93.30
2019-05-23T20:05:38.160Z,92.60
2019-05-23T20:08:15.447Z,91.40
2019-05-23T20:10:53.846Z,90.90
2019-05-23T20:13:33.573Z,90.80
2019-05-23T20:16:09.728Z,91.20
2019-05-23T20:18:56.831Z,92.40
2019-05-23T20:21:37.646Z,90.80
2019-05-23T20:24:13.886Z,91.50
2019-05-23T20:26:53.607Z,91.60
2019-05-23T20:29:30.651Z,92.50
2019-05-23T20:32:12.497Z,91.90
2019-05-23T20:34:52.039Z,91.80
2019-05-23T20:37:31.048Z,92.30
2019-05-23T20:40:08.509Z,91.30
2019-05-23T20:42:43.778Z,91.70
2019-05-23T20:45:20.386Z,90.80
2019-05-23T20:47:58.499Z,91.50
2019-05-23T20:50:35.706Z,93.00
2019-05-23T20:53:14.272Z,95.10
2019-05-23T20:55:51.195Z,94.40
2019-05-23T20:58:30.470Z,96.30
2019-05-23T21:01:31.203Z,98.90
2019-05-23T21:04:08.313Z,96.60
2019-05-23T21:06:43.139Z,99.90
2019-05-23T21:09:19.723Z,99.90
2019-05-23T21:11:55.393Z,99.90
2019-05-23T21:14:33.996Z,99.90
2019-05-23T21:17:10.121Z,99.90
2019-05-23T21:19:49.761Z,99.90
2019-05-23T21:22:29.647Z,99.90
2019-05-23T21:25:06.109Z,99.90
2019-05-23T21:27:42.979Z,99.90
2019-05-23T21:30:22.100Z,99.90
2019-05-23T21:32:59.089Z,99.90
2019-05-23T21:35:37.821Z,99.90
2019-05-23T21:38:13.854Z,99.90
2019-05-23T21:40:50.954Z,99.90
2019-05-23T21:43:32.468Z,99.90
2019-05-23T21:46:12.157Z,99.90
2019-05-23T21:48:48.852Z,99.90
2019-05-23T21:51:34.019Z,99.90
2019-05-23T21:54:19.876Z,99.90
2019-05-23T21:56:58.902Z,99.90
2019-05-23T21:59:34.842Z,99.90
2019-05-23T22:02:33.121Z,99.90
2019-05-23T22:05:17.199Z,99.90
2019-05-23T22:07:56.658Z,99.90
2019-05-23T22:10:35.561Z,99.90
2019-05-23T22:13:11.560Z,99.90
2019-05-23T22:15:47.144Z,99.90
2019-05-23T22:18:26.756Z,99.90
2019-05-23T22:21:05.364Z,99.90
2019-05-23T22:23:41.876Z,99.90
2019-05-23T22:26:20.208Z,99.90
2019-05-23T22:28:58.987Z,99.90
2019-05-23T22:31:37.253Z,99.90
2019-05-23T22:34:31.844Z,99.90
2019-05-23T22:37:36.492Z,99.90
2019-05-23T22:40:12.580Z,99.90
2019-05-23T22:42:48.568Z,99.90
2019-05-23T22:45:26.231Z,99.90
2019-05-23T22:48:01.662Z,99.90
2019-05-23T22:50:37.016Z,99.90
2019-05-23T22:53:13.653Z,99.90
2019-05-23T22:55:49.022Z,99.90
2019-05-23T22:58:27.452Z,99.90
2019-05-23T23:01:03.542Z,99.90
2019-05-23T23:03:38.882Z,99.90
2019-05-23T23:06:14.547Z,99.90
2019-05-23T23:08:50.324Z,99.90
2019-05-23T23:11:25.573Z,99.90
2019-05-23T23:13:59.848Z,99.90
2019-05-23T23:16:38.287Z,99.90
2019-05-23T23:19:14.504Z,99.90
2019-05-23T23:21:53.154Z,99.90
2019-05-23T23:24:28.343Z,99.90
2019-05-23T23:27:02.698Z,99.90
2019-05-23T23:29:39.196Z,99.90
2019-05-23T23:32:14.028Z,99.90
2019-05-23T23:34:49.655Z,99.90
2019-05-23T23:37:23.686Z,99.90
2019-05-23T23:39:59.104Z,99.90
2019-05-23T23:42:34.656Z,99.90
2019-05-23T23:45:27.840Z,99.90
2019-05-23T23:48:19.757Z,99.90
2019-05-23T23:51:14.874Z,99.90
2019-05-23T23:54:07.103Z,99.90
2019-05-23T23:57:00.234Z,99.90
2019-05-23T23:59:36.164Z,99.90
